Time;durP1;ratioP1;P1;durP2;ratioP2;P2;SDS_P1;SDS_P2;PMS_P1;PMS_P2;Temp;Humidity;BMP_temperature;BMP_pressure;BME280_temperature;BME280_humidity;BME280_pressure;Samples;Min_cycle;Max_cycle;Signal;HPM_P1;HPM_P2
2021/04/18 00:02:09;;;;;;;7.63;1.40;;;28.30;66.80;;;;;;4979608;28;20238;-91
2021/04/18 00:04:39;;;;;;;1.77;1.20;;;28.60;69.30;;;;;;4979499;28;20207;-91
2021/04/18 00:07:10;;;;;;;2.30;1.33;;;28.80;66.50;;;;;;4977901;28;20273;-90
2021/04/18 00:09:40;;;;;;;5.90;1.37;;;28.50;66.00;;;;;;4978138;28;20215;-90
2021/04/18 00:12:13;;;;;;;2.27;1.33;;;28.30;64.80;;;;;;4977927;28;20214;-90
2021/04/18 00:14:43;;;;;;;4.97;1.27;;;28.00;65.20;;;;;;4978411;28;20661;-90
2021/04/18 00:17:14;;;;;;;2.50;1.40;;;28.10;67.90;;;;;;4977877;28;20238;-90
2021/04/18 00:19:46;;;;;;;3.70;1.40;;;28.30;64.60;;;;;;4977611;28;20206;-90
2021/04/18 00:22:17;;;;;;;1.77;1.53;;;28.30;63.70;;;;;;4976755;28;20665;-91
2021/04/18 00:24:48;;;;;;;2.53;1.40;;;28.50;65.00;;;;;;4977189;28;20261;-90
2021/04/18 00:27:21;;;;;;;5.40;1.63;;;28.40;63.90;;;;;;4975987;28;20239;-90
2021/04/18 00:29:51;;;;;;;4.67;1.70;;;28.50;63.60;;;;;;4977087;28;20246;-90
2021/04/18 00:32:22;;;;;;;4.07;1.50;;;28.50;61.90;;;;;;4977326;28;20211;-90
2021/04/18 00:34:53;;;;;;;3.10;1.60;;;28.30;62.90;;;;;;4977184;28;20281;-90
2021/04/18 00:37:23;;;;;;;1.87;1.37;;;27.90;60.60;;;;;;4977379;28;20234;-91
2021/04/18 00:39:54;;;;;;;6.23;1.30;;;27.90;62.10;;;;;;4977216;28;20551;-91
2021/04/18 00:42:27;;;;;;;3.07;1.53;;;27.70;63.10;;;;;;4988165;28;20219;-91
2021/04/18 00:44:58;;;;;;;4.27;1.47;;;27.50;63.30;;;;;;4997579;28;20235;-90
2021/04/18 00:47:33;;;;;;;1.30;1.20;;;27.70;61.80;;;;;;4998276;28;20191;-92
2021/04/18 00:50:03;;;;;;;3.60;1.27;;;27.80;62.00;;;;;;4987728;28;20218;-89
2021/04/18 00:52:34;;;;;;;2.77;1.30;;;27.40;63.00;;;;;;4981812;28;20222;-93
2021/04/18 00:55:07;;;;;;;3.63;1.47;;;27.30;64.50;;;;;;4980685;28;20221;-91
2021/04/18 00:57:40;;;;;;;4.07;1.67;;;27.20;64.70;;;;;;4977187;28;20575;-91
2021/04/18 01:00:12;;;;;;;2.23;1.57;;;27.30;63.90;;;;;;4978531;28;20305;-90
2021/04/18 01:02:43;;;;;;;3.13;1.43;;;27.30;63.20;;;;;;4977523;28;20226;-91
2021/04/18 01:05:15;;;;;;;3.17;1.30;;;27.40;63.60;;;;;;4977107;28;20215;-91
2021/04/18 01:07:46;;;;;;;2.40;1.60;;;27.50;61.90;;;;;;4977923;28;20222;-90
2021/04/18 01:10:18;;;;;;;2.87;1.60;;;27.70;63.50;;;;;;4977342;28;20242;-91
2021/04/18 01:12:50;;;;;;;4.93;1.73;;;27.90;62.50;;;;;;4975581;28;20211;-90
2021/04/18 01:15:21;;;;;;;2.53;1.60;;;27.90;63.10;;;;;;4975927;28;20222;-91
2021/04/18 01:17:51;;;;;;;3.57;1.70;;;28.00;62.30;;;;;;4976350;28;20262;-90
2021/04/18 01:20:24;;;;;;;2.57;1.60;;;28.00;62.70;;;;;;4976339;28;20229;-89
2021/04/18 01:22:56;;;;;;;2.50;1.50;;;28.00;62.70;;;;;;4975234;28;20668;-90
2021/04/18 01:25:27;;;;;;;3.50;1.60;;;28.30;63.50;;;;;;4976024;28;20242;-91
2021/04/18 01:27:58;;;;;;;2.57;1.57;;;28.60;65.00;;;;;;4976748;28;20262;-91
2021/04/18 01:30:30;;;;;;;1.90;1.70;;;28.60;64.60;;;;;;4975125;28;20325;-90
2021/04/18 01:33:03;;;;;;;4.47;1.70;;;28.10;64.50;;;;;;4978036;28;20217;-91
2021/04/18 01:35:34;;;;;;;2.17;1.63;;;27.70;65.10;;;;;;4977812;28;20215;-91
2021/04/18 01:38:07;;;;;;;3.47;1.60;;;27.50;66.50;;;;;;4980796;28;20230;-92
2021/04/18 01:40:39;;;;;;;4.63;1.70;;;27.20;67.50;;;;;;4977286;28;20203;-93
2021/04/18 01:43:12;;;;;;;2.20;1.70;;;27.00;68.40;;;;;;4976977;28;20661;-92
2021/04/18 01:45:43;;;;;;;1.83;1.50;;;26.70;70.30;;;;;;4979902;28;20215;-92
2021/04/18 01:48:14;;;;;;;2.37;1.97;;;26.60;68.60;;;;;;4980645;28;20334;-92
2021/04/18 01:50:47;;;;;;;1.70;1.60;;;26.50;69.60;;;;;;4984212;28;20218;-92
2021/04/18 01:53:20;;;;;;;2.87;1.80;;;26.50;70.90;;;;;;4987190;28;20263;-92
2021/04/18 01:55:50;;;;;;;3.30;1.80;;;26.40;70.90;;;;;;4989088;28;20226;-92
2021/04/18 01:58:20;;;;;;;3.70;2.20;;;26.10;71.80;;;;;;4988249;28;20286;-93
2021/04/18 02:00:50;;;;;;;3.53;1.87;;;25.70;73.90;;;;;;4985183;28;20710;-94
2021/04/18 02:03:21;;;;;;;2.87;1.83;;;25.30;74.80;;;;;;4979609;28;20604;-93
2021/04/18 02:05:51;;;;;;;3.93;1.80;;;25.20;76.00;;;;;;4979467;28;20211;-93
2021/04/18 02:08:24;;;;;;;4.60;1.80;;;25.10;75.40;;;;;;4978564;28;20242;-92
2021/04/18 02:10:54;;;;;;;4.40;1.97;;;25.00;76.60;;;;;;4978348;28;20245;-92
2021/04/18 02:13:23;;;;;;;2.80;1.97;;;24.80;77.00;;;;;;4976030;28;20215;-92
2021/04/18 02:15:53;;;;;;;2.70;1.87;;;24.70;77.80;;;;;;4979714;28;20214;-91
2021/04/18 02:18:25;;;;;;;5.13;2.30;;;24.40;77.50;;;;;;4975252;28;20243;-92
2021/04/18 02:20:55;;;;;;;6.10;2.20;;;24.10;79.70;;;;;;4974699;28;20230;-92
2021/04/18 02:23:28;;;;;;;4.27;2.10;;;23.90;74.40;;;;;;4975201;28;20215;-92
2021/04/18 02:26:01;;;;;;;2.17;1.90;;;23.70;75.70;;;;;;4974814;28;20725;-93
2021/04/18 02:28:32;;;;;;;2.73;1.80;;;23.50;75.80;;;;;;4974503;28;20568;-93
2021/04/18 02:31:02;;;;;;;2.47;1.60;;;23.40;74.30;;;;;;4976212;28;20207;-93
2021/04/18 02:33:32;;;;;;;2.90;1.77;;;23.30;67.40;;;;;;4979240;28;20215;-93
2021/04/18 02:36:04;;;;;;;2.77;1.73;;;23.10;66.30;;;;;;4985191;28;20274;-92
2021/04/18 02:38:37;;;;;;;3.43;1.63;;;22.90;66.40;;;;;;4997338;28;20230;-93
2021/04/18 02:41:08;;;;;;;2.40;1.67;;;22.70;69.00;;;;;;4994476;28;20655;-93
2021/04/18 02:43:38;;;;;;;1.70;1.47;;;22.50;67.40;;;;;;4996416;28;20202;-92
2021/04/18 02:46:10;;;;;;;3.07;2.10;;;22.40;67.10;;;;;;4998155;28;20237;-91
2021/04/18 02:48:41;;;;;;;3.57;1.80;;;22.20;67.90;;;;;;4998553;28;20667;-92
2021/04/18 02:51:12;;;;;;;4.80;2.00;;;22.10;71.50;;;;;;4999230;28;20202;-93
2021/04/18 02:53:45;;;;;;;2.23;1.80;;;21.80;72.70;;;;;;4992773;28;20203;-93
2021/04/18 02:56:16;;;;;;;1.97;1.77;;;21.60;75.40;;;;;;4980201;28;20278;-92
2021/04/18 02:58:47;;;;;;;4.20;1.80;;;21.30;75.20;;;;;;4979719;28;20246;-93
2021/04/18 03:01:18;;;;;;;2.73;1.70;;;21.10;77.60;;;;;;4978563;28;20203;-93
2021/04/18 03:03:49;;;;;;;5.03;1.87;;;20.90;77.80;;;;;;4979617;28;20226;-93
2021/04/18 03:06:21;;;;;;;4.87;2.27;;;20.70;78.00;;;;;;4980001;28;20207;-93
2021/04/18 03:08:55;;;;;;;2.90;2.00;;;20.40;78.00;;;;;;4985418;28;20215;-93
2021/04/18 03:11:26;;;;;;;3.50;2.10;;;20.30;76.90;;;;;;4997566;28;20210;-91
2021/04/18 03:13:57;;;;;;;3.97;2.70;;;20.10;78.20;;;;;;4999448;28;20207;-92
2021/04/18 03:16:27;;;;;;;3.77;2.37;;;20.00;76.70;;;;;;4998149;28;20672;-92
2021/04/18 03:18:59;;;;;;;4.13;2.30;;;19.80;76.50;;;;;;4997524;28;20219;-92
2021/04/18 03:21:29;;;;;;;3.53;2.60;;;19.70;79.90;;;;;;4989885;28;20245;-93
2021/04/18 03:24:01;;;;;;;3.40;2.47;;;19.60;79.80;;;;;;4983088;28;20211;-93
2021/04/18 03:26:32;;;;;;;4.17;2.53;;;19.50;80.50;;;;;;4981278;28;20294;-92
2021/04/18 03:29:03;;;;;;;3.43;2.30;;;19.30;81.00;;;;;;4981299;28;20623;-92
2021/04/18 03:31:34;;;;;;;3.27;2.50;;;19.10;82.90;;;;;;4997818;28;20268;-93
2021/04/18 03:34:05;;;;;;;5.63;3.20;;;19.00;83.00;;;;;;5001108;28;20207;-93
2021/04/18 03:36:36;;;;;;;6.07;3.80;;;18.90;83.50;;;;;;4999666;28;20252;-93
2021/04/18 03:39:08;;;;;;;10.30;4.30;;;18.80;84.50;;;;;;5000275;28;20675;-93
2021/04/18 03:41:38;;;;;;;6.67;4.10;;;18.60;84.80;;;;;;4999592;28;20202;-93
2021/04/18 03:44:10;;;;;;;4.43;3.60;;;18.50;86.00;;;;;;4999349;28;20233;-93
2021/04/18 03:46:40;;;;;;;6.87;3.40;;;18.40;86.40;;;;;;4999902;28;20645;-94
2021/04/18 03:49:11;;;;;;;5.07;3.33;;;18.30;86.60;;;;;;4999321;28;20659;-93
2021/04/18 03:51:49;;;;;;;6.63;2.97;;;18.20;86.60;;;;;;4998225;28;20210;-93
2021/04/18 03:54:25;;;;;;;4.80;2.60;;;18.00;87.60;;;;;;5003098;28;20294;-94
2021/04/18 03:56:56;;;;;;;6.53;2.43;;;17.90;88.10;;;;;;5002988;28;20749;-94
2021/04/18 03:59:27;;;;;;;4.70;2.73;;;17.80;88.90;;;;;;5002095;28;20250;-94
2021/04/18 04:01:57;;;;;;;4.93;2.90;;;17.70;89.60;;;;;;4993531;28;20556;-93
2021/04/18 04:04:29;;;;;;;6.83;3.23;;;17.60;90.00;;;;;;4989688;28;20211;-92
2021/04/18 04:07:05;;;;;;;5.77;3.70;;;17.50;90.20;;;;;;4988917;28;20211;-92
2021/04/18 04:09:42;;;;;;;9.77;3.93;;;17.40;89.20;;;;;;4987551;28;20269;-93
2021/04/18 04:12:13;;;;;;;5.37;4.27;;;17.30;90.20;;;;;;4987194;28;20234;-92
2021/04/18 04:14:47;;;;;;;6.87;4.23;;;17.20;90.60;;;;;;4984487;28;20221;-92
2021/04/18 04:20:04;;;;;;;12.90;5.00;;;17.10;89.50;;;;;;4981856;28;20262;-92
2021/04/18 04:22:37;;;;;;;8.60;5.03;;;17.00;91.00;;;;;;4980653;28;20746;-91
2021/04/18 04:25:13;;;;;;;9.03;5.97;;;16.90;91.20;;;;;;4964730;28;20675;-91
2021/04/18 04:27:43;;;;;;;10.47;5.73;;;16.80;91.80;;;;;;4981785;28;20214;-92
2021/04/18 04:30:17;;;;;;;6.83;4.80;;;16.70;92.20;;;;;;4981993;28;20711;-93
2021/04/18 04:32:48;;;;;;;7.70;4.20;;;16.60;91.60;;;;;;4975207;28;20208;-92
2021/04/18 04:35:20;;;;;;;7.17;4.63;;;16.60;92.10;;;;;;4962973;29;20549;-92
2021/04/18 04:37:52;;;;;;;5.37;4.20;;;16.50;93.10;;;;;;4963395;29;20619;-93
2021/04/18 04:40:27;;;;;;;6.03;3.90;;;16.30;93.30;;;;;;4963260;29;20203;-93
2021/04/18 04:42:58;;;;;;;5.33;4.37;;;16.20;93.60;;;;;;4963734;28;20226;-91
2021/04/18 04:45:29;;;;;;;5.80;4.00;;;16.10;93.90;;;;;;4965428;29;20243;-91
2021/04/18 04:48:00;;;;;;;5.57;3.90;;;16.00;94.30;;;;;;4966570;29;20279;-92
2021/04/18 04:50:32;;;;;;;4.87;4.27;;;15.90;94.60;;;;;;4967434;28;20592;-93
2021/04/18 04:53:03;;;;;;;5.80;5.03;;;15.90;94.80;;;;;;4965444;28;20235;-91
2021/04/18 04:55:36;;;;;;;10.20;4.53;;;15.90;95.60;;;;;;4964184;28;20235;-92
2021/04/18 04:58:07;;;;;;;5.00;4.33;;;15.70;95.90;;;;;;4963925;28;20227;-92
2021/04/18 05:00:40;;;;;;;6.70;4.03;;;15.70;96.30;;;;;;4976459;28;20273;-91
2021/04/18 05:03:12;;;;;;;7.43;4.33;;;15.60;96.70;;;;;;4981619;28;20218;-92
2021/04/18 05:05:43;;;;;;;5.90;4.27;;;15.60;97.30;;;;;;4981520;28;20640;-92
2021/04/18 05:08:15;;;;;;;5.53;4.27;;;15.50;97.60;;;;;;4981081;28;20215;-91
2021/04/18 05:10:49;;;;;;;6.13;4.33;;;15.50;97.90;;;;;;4981537;28;20648;-92
2021/04/18 05:13:20;;;;;;;6.73;4.00;;;15.40;98.20;;;;;;4978080;28;20211;-92
2021/04/18 05:15:52;;;;;;;5.93;3.83;;;15.40;98.60;;;;;;4978552;28;20207;-92
2021/04/18 05:18:23;;;;;;;5.77;3.60;;;15.30;98.80;;;;;;4978483;28;20274;-92
2021/04/18 05:20:54;;;;;;;5.63;3.37;;;15.30;99.40;;;;;;4977994;28;20203;-92
2021/04/18 05:23:28;;;;;;;6.97;4.70;;;15.30;99.50;;;;;;4978304;28;20207;-92
2021/04/18 05:26:03;;;;;;;8.67;5.60;;;15.20;99.90;;;;;;4980568;28;20215;-92
2021/04/18 05:28:33;;;;;;;9.53;7.23;;;15.20;99.90;;;;;;4978138;28;20207;-92
2021/04/18 05:31:04;;;;;;;11.17;8.03;;;15.10;99.90;;;;;;4976702;28;20253;-93
2021/04/18 05:33:35;;;;;;;11.67;9.50;;;15.10;99.90;;;;;;4977007;28;20269;-92
2021/04/18 05:36:07;;;;;;;18.83;9.07;;;15.00;99.90;;;;;;4976676;28;20206;-92
2021/04/18 05:38:37;;;;;;;12.17;7.60;;;15.00;99.90;;;;;;4997637;28;20214;-91
2021/04/18 05:41:09;;;;;;;11.07;7.23;;;14.90;99.90;;;;;;4997691;28;20191;-91
2021/04/18 05:43:40;;;;;;;10.10;6.33;;;14.90;99.90;;;;;;4996594;28;20251;-93
2021/04/18 05:46:10;;;;;;;9.77;5.40;;;14.80;99.90;;;;;;4992220;28;20286;-93
2021/04/18 05:48:42;;;;;;;7.67;5.67;;;14.70;99.90;;;;;;4991222;28;20258;-93
2021/04/18 05:51:13;;;;;;;6.90;4.60;;;14.60;99.90;;;;;;4975517;28;20234;-93
2021/04/18 05:53:43;;;;;;;6.50;4.90;;;14.60;99.90;;;;;;4978434;28;20215;-93
2021/04/18 05:56:15;;;;;;;7.27;4.90;;;14.60;99.90;;;;;;4982392;28;20194;-92
2021/04/18 05:58:46;;;;;;;10.17;5.27;;;14.50;99.90;;;;;;4980883;28;20282;-92
2021/04/18 06:01:18;;;;;;;10.33;5.70;;;14.40;99.90;;;;;;4965687;28;20207;-92
2021/04/18 06:03:47;;;;;;;9.93;6.17;;;14.30;99.90;;;;;;4965698;29;20302;-93
2021/04/18 06:06:19;;;;;;;10.23;6.77;;;14.30;99.90;;;;;;4959176;28;20220;-92
2021/04/18 06:08:49;;;;;;;11.90;7.37;;;14.20;99.90;;;;;;4959583;28;20223;-92
2021/04/18 06:11:21;;;;;;;12.47;8.07;;;14.20;99.90;;;;;;4956474;29;20211;-92
2021/04/18 06:13:51;;;;;;;9.43;6.87;;;14.20;99.90;;;;;;4957633;28;20214;-91
2021/04/18 06:16:21;;;;;;;10.40;6.40;;;14.10;99.90;;;;;;4958262;29;20234;-91
2021/04/18 06:18:51;;;;;;;10.00;6.33;;;14.00;99.90;;;;;;4960924;28;20234;-91
2021/04/18 06:21:21;;;;;;;8.80;5.53;;;14.10;99.90;;;;;;4963698;28;20241;-91
2021/04/18 06:23:52;;;;;;;6.77;5.37;;;14.00;99.90;;;;;;4960371;28;20227;-92
2021/04/18 06:26:23;;;;;;;7.37;5.23;;;14.00;99.90;;;;;;4977400;28;20275;-91
2021/04/18 06:28:53;;;;;;;6.40;5.70;;;13.90;99.90;;;;;;4980823;28;20203;-91
2021/04/18 06:31:24;;;;;;;6.03;5.20;;;13.90;99.90;;;;;;4975881;28;20204;-91
2021/04/18 06:33:54;;;;;;;6.20;4.80;;;13.90;99.90;;;;;;4960605;28;20211;-91
2021/04/18 06:36:25;;;;;;;6.80;4.33;;;13.90;99.90;;;;;;4960203;28;20245;-91
2021/04/18 06:38:57;;;;;;;5.77;4.50;;;13.80;99.90;;;;;;4961126;28;20235;-91
2021/04/18 06:41:31;;;;;;;5.87;4.30;;;13.80;99.90;;;;;;4959305;28;20290;-91
2021/04/18 06:44:03;;;;;;;6.53;4.30;;;13.70;99.90;;;;;;4965672;28;20217;-93
2021/04/18 06:46:35;;;;;;;7.63;4.20;;;13.60;99.90;;;;;;4979295;28;20305;-92
2021/04/18 06:49:07;;;;;;;6.30;4.13;;;13.60;99.90;;;;;;4978585;28;20214;-91
2021/04/18 06:51:38;;;;;;;6.07;4.17;;;13.50;99.90;;;;;;4979438;28;20667;-92
2021/04/18 06:54:10;;;;;;;5.10;4.13;;;13.50;99.90;;;;;;4979225;28;20242;-92
2021/04/18 06:56:42;;;;;;;5.97;4.23;;;13.50;99.90;;;;;;4978318;28;20234;-92
2021/04/18 06:59:13;;;;;;;7.37;4.77;;;13.40;99.90;;;;;;4979039;28;20254;-92
2021/04/18 07:01:46;;;;;;;8.43;4.57;;;13.40;99.90;;;;;;4977809;28;20234;-91
2021/04/18 07:04:19;;;;;;;7.33;4.77;;;13.40;99.90;;;;;;4978995;28;20358;-92
2021/04/18 07:06:52;;;;;;;5.80;5.13;;;13.40;99.90;;;;;;4979153;28;20227;-92
2021/04/18 07:09:24;;;;;;;7.90;5.00;;;13.30;99.90;;;;;;4978098;28;20199;-91
2021/04/18 07:11:58;;;;;;;6.23;4.90;;;13.30;99.90;;;;;;4959763;28;20215;-91
2021/04/18 07:14:30;;;;;;;5.37;4.37;;;13.30;99.90;;;;;;4960619;28;20215;-92
2021/04/18 07:17:11;;;;;;;7.30;4.60;;;13.20;99.90;;;;;;4963059;28;20272;-91
2021/04/18 07:19:44;;;;;;;7.63;4.20;;;13.10;99.90;;;;;;4964911;28;20235;-91
2021/04/18 07:22:18;;;;;;;8.10;3.77;;;13.10;99.90;;;;;;4964552;29;20223;-91
2021/04/18 07:24:55;;;;;;;4.47;3.30;;;13.10;99.90;;;;;;4962623;28;20208;-90
2021/04/18 07:27:43;;;;;;;5.03;3.50;;;13.00;99.90;;;;;;4959193;28;20570;-91
2021/04/18 07:30:15;;;;;;;5.73;3.60;;;13.00;99.90;;;;;;4959401;28;20259;-91
2021/04/18 07:32:46;;;;;;;6.80;3.57;;;13.00;99.90;;;;;;4960377;28;20207;-92
2021/04/18 07:35:36;;;;;;;5.37;3.20;;;13.00;99.90;;;;;;4966091;28;20208;-91
2021/04/18 07:38:23;;;;;;;7.77;3.30;;;12.90;99.90;;;;;;4966522;28;20218;-91
2021/04/18 07:40:55;;;;;;;4.93;3.87;;;12.90;99.90;;;;;;4961721;29;20223;-90
2021/04/18 07:43:28;;;;;;;4.17;3.20;;;12.90;99.90;;;;;;4958623;29;20231;-91
2021/04/18 07:45:59;;;;;;;5.00;3.07;;;12.90;99.90;;;;;;4960093;28;20218;-91
2021/04/18 07:48:30;;;;;;;5.00;3.63;;;12.90;99.90;;;;;;4960761;28;20211;-91
2021/04/18 07:51:00;;;;;;;5.30;3.23;;;12.80;99.90;;;;;;4960061;29;20222;-91
2021/04/18 07:53:30;;;;;;;6.87;3.23;;;12.80;99.90;;;;;;4959262;28;20207;-92
2021/04/18 07:56:01;;;;;;;3.43;2.70;;;12.80;99.90;;;;;;4959711;29;20616;-92
2021/04/18 07:58:32;;;;;;;3.77;2.90;;;12.80;99.90;;;;;;4959316;28;20207;-92
2021/04/18 08:01:02;;;;;;;5.80;2.67;;;12.80;99.90;;;;;;4960685;29;20212;-91
2021/04/18 08:03:33;;;;;;;4.00;2.67;;;12.80;99.90;;;;;;4973876;28;20196;-92
2021/04/18 08:06:06;;;;;;;4.27;2.73;;;12.80;99.90;;;;;;4979444;28;20196;-92
2021/04/18 08:08:55;;;;;;;3.03;2.67;;;12.80;99.90;;;;;;4979929;28;20208;-91
2021/04/18 08:11:26;;;;;;;5.50;3.20;;;12.70;99.90;;;;;;4965220;28;20223;-92
2021/04/18 08:13:58;;;;;;;4.90;2.90;;;12.70;99.90;;;;;;4960795;28;20243;-92
2021/04/18 08:16:31;;;;;;;4.13;3.13;;;12.60;99.90;;;;;;4962219;29;20234;-90
2021/04/18 08:19:08;;;;;;;4.10;3.20;;;12.60;99.90;;;;;;4962762;29;20247;-89
2021/04/18 08:21:40;;;;;;;3.93;2.80;;;12.60;99.90;;;;;;4970885;28;20229;-91
2021/04/18 08:24:38;;;;;;;3.50;2.80;;;12.50;99.90;;;;;;4979014;28;20266;-90
2021/04/18 08:27:11;;;;;;;3.57;2.60;;;12.50;99.90;;;;;;4977160;28;20262;-91
2021/04/18 08:30:03;;;;;;;5.23;2.90;;;12.40;99.90;;;;;;4977281;28;20273;-91
2021/04/18 08:32:46;;;;;;;2.60;2.40;;;12.40;99.90;;;;;;4977860;28;20254;-91
2021/04/18 08:35:20;;;;;;;4.43;3.17;;;12.30;99.90;;;;;;4977689;28;20277;-91
2021/04/18 08:38:19;;;;;;;4.37;2.77;;;12.20;99.90;;;;;;4977084;28;20218;-92
2021/04/18 08:41:04;;;;;;;3.47;3.17;;;12.20;99.90;;;;;;4977299;28;20231;-90
2021/04/18 08:43:34;;;;;;;3.07;2.50;;;12.10;99.90;;;;;;4976096;28;20206;-91
2021/04/18 08:46:07;;;;;;;3.67;2.80;;;12.10;99.90;;;;;;4976262;28;20238;-92
2021/04/18 08:48:39;;;;;;;5.60;3.10;;;12.00;99.90;;;;;;4977082;28;20643;-92
2021/04/18 08:51:10;;;;;;;5.10;2.40;;;11.90;99.90;;;;;;4977255;28;20253;-92
2021/04/18 08:53:57;;;;;;;4.40;2.93;;;11.90;99.90;;;;;;4977724;28;20269;-92
2021/04/18 08:56:46;;;;;;;3.83;3.07;;;11.80;99.90;;;;;;4977384;28;20214;-92
2021/04/18 08:59:19;;;;;;;3.77;2.50;;;11.80;99.90;;;;;;4977934;28;20242;-92
2021/04/18 09:02:06;;;;;;;4.10;2.37;;;11.70;99.90;;;;;;4988549;28;20675;-92
2021/04/18 09:04:40;;;;;;;3.30;2.73;;;11.60;99.90;;;;;;4987542;28;20214;-91
2021/04/18 09:07:13;;;;;;;5.47;3.00;;;11.60;99.90;;;;;;4986912;28;20218;-91
2021/04/18 09:09:44;;;;;;;3.07;2.73;;;11.60;99.90;;;;;;4983488;28;20246;-91
2021/04/18 09:12:16;;;;;;;6.63;2.90;;;11.50;99.90;;;;;;4982317;28;20284;-92
2021/04/18 09:14:48;;;;;;;3.83;3.00;;;11.50;99.90;;;;;;4980097;28;20219;-92
2021/04/18 09:17:28;;;;;;;4.93;2.50;;;11.40;99.90;;;;;;4977770;28;20230;-92
2021/04/18 09:20:00;;;;;;;7.13;2.97;;;11.40;99.90;;;;;;4977694;28;20226;-92
2021/04/18 09:22:32;;;;;;;3.50;2.93;;;11.30;99.90;;;;;;4981610;28;20623;-91
2021/04/18 09:25:08;;;;;;;3.80;3.03;;;11.30;99.90;;;;;;4979084;28;20329;-92
2021/04/18 09:27:40;;;;;;;4.67;3.00;;;11.30;99.90;;;;;;4976724;28;20257;-92
2021/04/18 09:30:18;;;;;;;3.03;2.73;;;11.30;99.90;;;;;;4975963;28;20236;-92
2021/04/18 09:32:51;;;;;;;5.10;3.00;;;11.20;99.90;;;;;;4976475;28;20213;-92
2021/04/18 09:35:22;;;;;;;4.03;2.97;;;11.20;99.90;;;;;;4976405;28;20211;-92
2021/04/18 09:37:54;;;;;;;4.10;2.80;;;11.10;99.90;;;;;;4977028;28;20207;-91
2021/04/18 09:40:26;;;;;;;3.53;3.00;;;11.10;99.90;;;;;;4976550;28;20269;-92
2021/04/18 09:42:57;;;;;;;3.17;2.80;;;11.10;99.90;;;;;;4975700;28;20580;-92
2021/04/18 09:45:29;;;;;;;5.90;3.27;;;11.00;99.90;;;;;;4976439;28;20222;-93
2021/04/18 09:48:13;;;;;;;3.50;3.00;;;11.00;99.90;;;;;;4976225;28;20210;-93
2021/04/18 09:50:44;;;;;;;5.80;2.97;;;10.90;99.90;;;;;;4977981;28;20219;-92
2021/04/18 09:53:15;;;;;;;8.30;2.87;;;10.80;99.90;;;;;;4977030;28;20222;-92
2021/04/18 09:55:53;;;;;;;7.63;2.90;;;10.80;99.90;;;;;;4976510;28;20625;-91
2021/04/18 09:58:29;;;;;;;5.30;2.87;;;10.80;99.90;;;;;;4968781;28;20208;-91
2021/04/18 10:00:59;;;;;;;5.83;2.70;;;10.70;99.90;;;;;;4957542;29;20281;-92
2021/04/18 10:03:41;;;;;;;4.33;2.93;;;10.70;99.90;;;;;;4956207;28;20290;-92
2021/04/18 10:06:13;;;;;;;3.47;2.90;;;10.70;99.90;;;;;;4957031;28;20211;-92
2021/04/18 10:08:55;;;;;;;3.77;3.10;;;10.70;99.90;;;;;;4956666;28;20211;-93
2021/04/18 10:11:29;;;;;;;4.63;2.90;;;10.70;99.90;;;;;;4956504;29;20215;-93
2021/04/18 10:14:00;;;;;;;3.70;2.77;;;10.60;99.90;;;;;;4957091;28;20251;-92
2021/04/18 10:16:42;;;;;;;4.73;2.70;;;10.50;99.90;;;;;;4956583;28;20262;-92
2021/04/18 10:19:16;;;;;;;3.27;2.80;;;10.50;99.90;;;;;;4958019;28;20430;-92
2021/04/18 10:22:06;;;;;;;3.93;2.87;;;10.50;99.90;;;;;;4956281;28;20246;-90
2021/04/18 10:24:38;;;;;;;4.70;2.53;;;10.50;99.90;;;;;;4960015;29;20231;-92
2021/04/18 10:27:11;;;;;;;4.30;2.90;;;10.50;99.90;;;;;;4972049;28;20254;-92
2021/04/18 10:29:44;;;;;;;5.13;2.63;;;10.40;99.90;;;;;;4977637;28;20211;-91
2021/04/18 10:32:18;;;;;;;3.77;2.90;;;10.40;99.90;;;;;;4975650;28;20203;-90
2021/04/18 10:34:52;;;;;;;2.83;2.57;;;10.50;99.90;;;;;;4962056;28;20286;-91
2021/04/18 10:37:26;;;;;;;5.40;2.73;;;10.40;99.90;;;;;;4983162;28;20222;-92
2021/04/18 10:39:56;;;;;;;3.17;2.60;;;10.40;99.90;;;;;;4977396;28;20281;-90
2021/04/18 10:42:27;;;;;;;5.77;3.73;;;10.30;99.90;;;;;;4974446;28;20255;-91
2021/04/18 10:44:58;;;;;;;4.43;2.60;;;10.20;99.90;;;;;;4975251;28;20210;-92
2021/04/18 10:47:30;;;;;;;5.23;2.77;;;10.20;99.90;;;;;;4975657;28;20301;-92
2021/04/18 10:50:03;;;;;;;6.00;2.90;;;10.10;99.90;;;;;;4976447;28;20211;-92
2021/04/18 10:52:34;;;;;;;4.77;2.67;;;10.10;99.90;;;;;;4976588;28;20234;-93
2021/04/18 10:55:08;;;;;;;2.90;2.53;;;10.00;99.90;;;;;;4978081;28;20253;-92
2021/04/18 10:57:39;;;;;;;4.90;2.57;;;10.00;99.90;;;;;;4984298;28;20207;-92
2021/04/18 11:00:13;;;;;;;5.00;2.70;;;10.00;99.90;;;;;;4990959;28;20239;-91
2021/04/18 11:02:44;;;;;;;3.20;2.80;;;10.00;99.90;;;;;;4994494;28;20194;-88
2021/04/18 11:05:17;;;;;;;5.47;2.90;;;10.00;99.90;;;;;;4985712;28;20294;-92
2021/04/18 11:07:48;;;;;;;3.70;2.33;;;10.00;99.90;;;;;;4977354;28;20219;-93
2021/04/18 11:10:18;;;;;;;3.40;2.27;;;10.00;99.90;;;;;;4982090;28;20253;-92
2021/04/18 11:12:50;;;;;;;4.67;2.60;;;10.00;99.90;;;;;;4978344;28;20228;-93
2021/04/18 11:15:20;;;;;;;3.53;2.53;;;10.00;99.90;;;;;;4983384;28;20292;-92
2021/04/18 11:17:51;;;;;;;3.50;2.50;;;9.90;99.90;;;;;;4978887;28;20211;-90
2021/04/18 11:20:26;;;;;;;2.73;2.50;;;9.90;99.90;;;;;;4983641;28;20280;-90
2021/04/18 11:22:56;;;;;;;4.63;2.17;;;9.90;99.90;;;;;;4978118;28;20210;-91
2021/04/18 11:25:26;;;;;;;3.53;2.30;;;9.90;99.90;;;;;;4980804;28;20206;-90
2021/04/18 11:27:56;;;;;;;3.10;2.13;;;9.80;99.90;;;;;;4979861;28;20207;-90
2021/04/18 11:30:27;;;;;;;3.00;2.20;;;9.70;99.90;;;;;;4979874;28;20304;-91
2021/04/18 11:32:57;;;;;;;2.97;2.10;;;9.70;99.90;;;;;;4982091;28;20233;-90
2021/04/18 11:35:29;;;;;;;3.13;2.27;;;9.60;99.90;;;;;;4981305;28;20610;-91
2021/04/18 11:38:00;;;;;;;4.93;2.20;;;9.60;99.90;;;;;;4986641;28;20207;-91
2021/04/18 11:40:31;;;;;;;6.00;2.50;;;9.60;99.90;;;;;;4982532;28;20243;-91
2021/04/18 11:43:02;;;;;;;5.83;2.73;;;9.60;99.90;;;;;;4980135;28;20230;-91
2021/04/18 11:45:33;;;;;;;4.03;2.37;;;9.60;99.90;;;;;;4984570;28;20250;-91
2021/04/18 11:48:04;;;;;;;4.03;2.47;;;9.60;99.90;;;;;;4983604;28;20265;-91
2021/04/18 11:50:37;;;;;;;3.67;2.50;;;9.50;99.90;;;;;;4981131;28;20207;-92
2021/04/18 11:53:08;;;;;;;3.20;2.53;;;9.50;99.90;;;;;;4981590;28;20215;-91
2021/04/18 11:55:40;;;;;;;3.23;2.33;;;9.50;99.90;;;;;;4984883;28;20238;-92
2021/04/18 11:58:12;;;;;;;2.50;2.30;;;9.50;99.90;;;;;;4986907;28;20203;-92
2021/04/18 12:00:43;;;;;;;2.50;2.27;;;9.50;99.90;;;;;;4983795;28;20305;-92
2021/04/18 12:03:17;;;;;;;2.97;2.30;;;9.50;99.90;;;;;;4985551;28;20207;-92
2021/04/18 12:05:53;;;;;;;3.37;2.77;;;9.40;99.90;;;;;;4988782;28;20685;-92
2021/04/18 12:08:23;;;;;;;5.90;2.70;;;9.40;99.90;;;;;;4984638;28;20213;-92
2021/04/18 12:10:54;;;;;;;2.87;2.33;;;9.40;99.90;;;;;;4985444;28;20210;-91
2021/04/18 12:13:25;;;;;;;4.13;2.50;;;9.30;99.90;;;;;;4969523;28;20286;-92
2021/04/18 12:15:56;;;;;;;2.50;2.27;;;9.30;99.90;;;;;;4964215;29;20219;-91
2021/04/18 12:18:26;;;;;;;2.57;2.30;;;9.30;99.90;;;;;;4964213;28;20581;-91
2021/04/18 12:20:59;;;;;;;4.20;2.87;;;9.30;99.90;;;;;;4964257;28;20322;-91
2021/04/18 12:23:30;;;;;;;3.20;2.57;;;9.20;99.90;;;;;;4962384;28;20657;-90
2021/04/18 12:26:02;;;;;;;3.03;2.50;;;9.10;99.90;;;;;;4963132;29;20214;-90
2021/04/18 12:28:35;;;;;;;4.03;2.23;;;9.10;99.90;;;;;;4961752;29;20229;-91
2021/04/18 12:31:09;;;;;;;3.63;2.23;;;9.10;99.90;;;;;;4963414;28;20218;-91
2021/04/18 12:33:40;;;;;;;3.87;2.50;;;9.10;99.90;;;;;;4965931;29;20208;-91
2021/04/18 12:36:14;;;;;;;6.03;2.37;;;9.00;99.90;;;;;;4971051;28;20285;-91
2021/04/18 12:38:46;;;;;;;3.03;2.40;;;9.10;99.90;;;;;;4984456;28;20239;-89
2021/04/18 12:41:17;;;;;;;3.30;2.60;;;9.00;99.90;;;;;;4984100;28;20238;-90
2021/04/18 12:43:47;;;;;;;4.77;2.30;;;9.00;99.90;;;;;;4984271;28;20218;-91
2021/04/18 12:46:18;;;;;;;3.17;2.33;;;9.00;99.90;;;;;;4986698;28;20276;-91
2021/04/18 12:48:52;;;;;;;2.50;2.30;;;9.00;99.90;;;;;;4990917;28;20206;-91
2021/04/18 12:51:27;;;;;;;2.60;2.40;;;8.90;99.90;;;;;;4996143;28;20238;-91
2021/04/18 12:54:00;;;;;;;5.53;2.70;;;8.90;99.90;;;;;;4997984;28;20221;-91
2021/04/18 12:56:31;;;;;;;4.97;2.40;;;8.90;99.90;;;;;;4992579;28;20215;-92
2021/04/18 12:59:02;;;;;;;3.40;2.40;;;8.90;99.90;;;;;;4988436;28;20211;-93
2021/04/18 13:01:33;;;;;;;4.93;2.47;;;8.90;99.90;;;;;;4988881;28;20234;-90
2021/04/18 13:04:05;;;;;;;4.27;2.57;;;8.80;99.90;;;;;;4988307;28;20203;-89
2021/04/18 13:06:36;;;;;;;4.13;2.60;;;8.80;99.90;;;;;;4985676;28;20270;-91
2021/04/18 13:09:08;;;;;;;4.83;2.57;;;8.80;99.90;;;;;;4986275;28;20233;-91
2021/04/18 13:11:42;;;;;;;3.63;2.30;;;8.70;99.90;;;;;;4981834;28;20221;-90
2021/04/18 13:14:13;;;;;;;4.20;2.87;;;8.70;99.90;;;;;;4987541;28;20223;-91
2021/04/18 13:16:43;;;;;;;3.07;2.30;;;8.70;99.90;;;;;;4988477;28;20218;-90
2021/04/18 13:19:18;;;;;;;4.70;2.57;;;8.70;99.90;;;;;;4988132;28;20248;-90